sensor_id;sensor_type;location;lat;lon;timestamp;temperature;humidity
4520;DHT22;2272;49.226;8.108;2023-03-23T00:00:15;13.20;99.90
4520;DHT22;2272;49.226;8.108;2023-03-23T00:02:43;13.20;99.90
4520;DHT22;2272;49.226;8.108;2023-03-23T00:05:15;13.20;99.90
4520;DHT22;2272;49.226;8.108;2023-03-23T00:07:44;13.10;99.90
4520;DHT22;2272;49.226;8.108;2023-03-23T00:10:13;13.10;99.90
4520;DHT22;2272;49.226;8.108;2023-03-23T00:12:40;13.00;99.90
4520;DHT22;2272;49.226;8.108;2023-03-23T00:15:11;12.80;99.90
4520;DHT22;2272;49.226;8.108;2023-03-23T00:17:42;12.70;99.90
4520;DHT22;2272;49.226;8.108;2023-03-23T00:20:11;12.60;99.90
4520;DHT22;2272;49.226;8.108;2023-03-23T00:22:41;12.50;99.90
4520;DHT22;2272;49.226;8.108;2023-03-23T00:25:21;12.60;99.90
4520;DHT22;2272;49.226;8.108;2023-03-23T00:27:53;12.60;99.90
4520;DHT22;2272;49.226;8.108;2023-03-23T00:30:40;12.70;99.90
4520;DHT22;2272;49.226;8.108;2023-03-23T00:36:33;12.80;99.90
4520;DHT22;2272;49.226;8.108;2023-03-23T00:56:18;12.60;99.90
4520;DHT22;2272;49.226;8.108;2023-03-23T00:58:54;12.50;99.90
4520;DHT22;2272;49.226;8.108;2023-03-23T01:01:30;12.60;99.90
4520;DHT22;2272;49.226;8.108;2023-03-23T01:04:16;12.60;99.90
4520;DHT22;2272;49.226;8.108;2023-03-23T01:06:54;12.60;99.90
4520;DHT22;2272;49.226;8.108;2023-03-23T01:09:35;12.60;99.90
4520;DHT22;2272;49.226;8.108;2023-03-23T01:12:07;12.70;99.90
4520;DHT22;2272;49.226;8.108;2023-03-23T01:14:34;12.60;99.90
4520;DHT22;2272;49.226;8.108;2023-03-23T01:17:04;12.60;99.90
4520;DHT22;2272;49.226;8.108;2023-03-23T01:19:41;12.60;99.90
4520;DHT22;2272;49.226;8.108;2023-03-23T01:22:11;12.60;99.90
4520;DHT22;2272;49.226;8.108;2023-03-23T01:24:50;12.60;99.90
4520;DHT22;2272;49.226;8.108;2023-03-23T01:27:33;12.60;99.90
4520;DHT22;2272;49.226;8.108;2023-03-23T01:30:01;12.60;99.90
4520;DHT22;2272;49.226;8.108;2023-03-23T01:32:36;12.60;99.90
4520;DHT22;2272;49.226;8.108;2023-03-23T01:35:14;12.50;99.90
4520;DHT22;2272;49.226;8.108;2023-03-23T01:37:45;12.60;99.90
4520;DHT22;2272;49.226;8.108;2023-03-23T01:40:14;12.60;99.90
4520;DHT22;2272;49.226;8.108;2023-03-23T01:42:58;12.60;99.90
4520;DHT22;2272;49.226;8.108;2023-03-23T01:45:39;12.60;99.90
4520;DHT22;2272;49.226;8.108;2023-03-23T01:48:20;12.60;99.90
4520;DHT22;2272;49.226;8.108;2023-03-23T01:50:56;12.60;99.90
4520;DHT22;2272;49.226;8.108;2023-03-23T01:53:30;12.60;99.90
4520;DHT22;2272;49.226;8.108;2023-03-23T01:56:02;12.60;99.90
4520;DHT22;2272;49.226;8.108;2023-03-23T01:58:33;12.70;99.90
4520;DHT22;2272;49.226;8.108;2023-03-23T02:01:03;12.70;99.90
4520;DHT22;2272;49.226;8.108;2023-03-23T02:03:32;12.60;99.90
4520;DHT22;2272;49.226;8.108;2023-03-23T02:06:02;12.60;99.90
4520;DHT22;2272;49.226;8.108;2023-03-23T02:08:32;12.60;99.90
4520;DHT22;2272;49.226;8.108;2023-03-23T02:11:13;12.60;99.90
4520;DHT22;2272;49.226;8.108;2023-03-23T02:13:54;12.60;99.90
4520;DHT22;2272;49.226;8.108;2023-03-23T02:16:29;12.60;99.90
4520;DHT22;2272;49.226;8.108;2023-03-23T02:19:07;12.70;99.90
4520;DHT22;2272;49.226;8.108;2023-03-23T02:22:15;12.70;99.90
4520;DHT22;2272;49.226;8.108;2023-03-23T02:25:03;12.70;99.90
4520;DHT22;2272;49.226;8.108;2023-03-23T02:30:47;12.70;99.90
4520;DHT22;2272;49.226;8.108;2023-03-23T02:33:39;12.70;99.90
4520;DHT22;2272;49.226;8.108;2023-03-23T02:36:13;12.70;99.90
4520;DHT22;2272;49.226;8.108;2023-03-23T02:38:49;12.60;99.90
4520;DHT22;2272;49.226;8.108;2023-03-23T02:41:24;12.60;99.90
4520;DHT22;2272;49.226;8.108;2023-03-23T02:44:08;12.60;99.90
4520;DHT22;2272;49.226;8.108;2023-03-23T02:46:44;12.60;99.90
4520;DHT22;2272;49.226;8.108;2023-03-23T02:49:19;12.60;99.90
4520;DHT22;2272;49.226;8.108;2023-03-23T02:51:54;12.50;99.90
4520;DHT22;2272;49.226;8.108;2023-03-23T02:54:27;12.60;99.90
4520;DHT22;2272;49.226;8.108;2023-03-23T02:57:08;12.60;99.90
4520;DHT22;2272;49.226;8.108;2023-03-23T02:59:53;12.60;99.90
4520;DHT22;2272;49.226;8.108;2023-03-23T03:02:23;12.60;99.90
4520;DHT22;2272;49.226;8.108;2023-03-23T03:05:03;12.60;99.90
4520;DHT22;2272;49.226;8.108;2023-03-23T03:07:58;12.60;99.90
4520;DHT22;2272;49.226;8.108;2023-03-23T03:10:35;12.60;99.90
4520;DHT22;2272;49.226;8.108;2023-03-23T03:13:12;12.60;99.90
4520;DHT22;2272;49.226;8.108;2023-03-23T03:15:44;12.70;99.90
4520;DHT22;2272;49.226;8.108;2023-03-23T03:18:15;12.70;99.90
4520;DHT22;2272;49.226;8.108;2023-03-23T03:20:47;12.70;99.90
4520;DHT22;2272;49.226;8.108;2023-03-23T03:23:22;12.70;99.90
4520;DHT22;2272;49.226;8.108;2023-03-23T03:25:50;12.70;99.90
4520;DHT22;2272;49.226;8.108;2023-03-23T03:28:19;12.70;99.90
4520;DHT22;2272;49.226;8.108;2023-03-23T03:30:54;12.70;99.90
4520;DHT22;2272;49.226;8.108;2023-03-23T03:33:23;12.70;99.90
4520;DHT22;2272;49.226;8.108;2023-03-23T03:35:55;12.70;99.90
4520;DHT22;2272;49.226;8.108;2023-03-23T03:38:23;12.70;99.90
4520;DHT22;2272;49.226;8.108;2023-03-23T03:40:50;12.70;99.90
4520;DHT22;2272;49.226;8.108;2023-03-23T03:43:17;12.70;99.90
4520;DHT22;2272;49.226;8.108;2023-03-23T03:45:44;12.70;99.90
4520;DHT22;2272;49.226;8.108;2023-03-23T03:48:12;12.60;99.90
4520;DHT22;2272;49.226;8.108;2023-03-23T03:50:39;12.60;99.90
4520;DHT22;2272;49.226;8.108;2023-03-23T03:53:07;12.60;99.90
4520;DHT22;2272;49.226;8.108;2023-03-23T03:55:35;12.60;99.90
4520;DHT22;2272;49.226;8.108;2023-03-23T03:58:04;12.60;99.90
4520;DHT22;2272;49.226;8.108;2023-03-23T04:00:31;12.60;99.90
4520;DHT22;2272;49.226;8.108;2023-03-23T04:02:58;12.60;99.90
4520;DHT22;2272;49.226;8.108;2023-03-23T04:05:26;12.60;99.90
4520;DHT22;2272;49.226;8.108;2023-03-23T04:07:55;12.60;99.90
4520;DHT22;2272;49.226;8.108;2023-03-23T04:10:29;12.50;99.90
4520;DHT22;2272;49.226;8.108;2023-03-23T04:12:56;12.60;99.90
4520;DHT22;2272;49.226;8.108;2023-03-23T04:15:23;12.60;99.90
4520;DHT22;2272;49.226;8.108;2023-03-23T04:17:53;12.50;99.90
4520;DHT22;2272;49.226;8.108;2023-03-23T04:20:22;12.50;99.90
4520;DHT22;2272;49.226;8.108;2023-03-23T04:22:50;12.50;99.90
4520;DHT22;2272;49.226;8.108;2023-03-23T04:25:21;12.50;99.90
4520;DHT22;2272;49.226;8.108;2023-03-23T04:27:50;12.40;99.90
4520;DHT22;2272;49.226;8.108;2023-03-23T04:30:19;12.40;99.90
4520;DHT22;2272;49.226;8.108;2023-03-23T04:32:47;12.40;99.90
4520;DHT22;2272;49.226;8.108;2023-03-23T04:35:16;12.40;99.90
4520;DHT22;2272;49.226;8.108;2023-03-23T04:37:43;12.40;99.90
4520;DHT22;2272;49.226;8.108;2023-03-23T04:40:11;12.40;99.90
4520;DHT22;2272;49.226;8.108;2023-03-23T04:42:44;12.40;99.90
4520;DHT22;2272;49.226;8.108;2023-03-23T04:45:18;12.40;99.90
4520;DHT22;2272;49.226;8.108;2023-03-23T04:47:49;12.40;99.90
4520;DHT22;2272;49.226;8.108;2023-03-23T04:50:31;12.50;99.90
4520;DHT22;2272;49.226;8.108;2023-03-23T04:53:00;12.60;99.90
4520;DHT22;2272;49.226;8.108;2023-03-23T04:55:30;12.80;99.90
4520;DHT22;2272;49.226;8.108;2023-03-23T04:58:01;12.80;99.90
4520;DHT22;2272;49.226;8.108;2023-03-23T05:00:30;12.80;99.90
4520;DHT22;2272;49.226;8.108;2023-03-23T05:03:01;12.80;99.90
4520;DHT22;2272;49.226;8.108;2023-03-23T05:05:42;12.90;99.90
4520;DHT22;2272;49.226;8.108;2023-03-23T05:08:12;12.90;99.90
4520;DHT22;2272;49.226;8.108;2023-03-23T05:10:44;12.90;99.90
4520;DHT22;2272;49.226;8.108;2023-03-23T05:13:16;12.90;99.90
4520;DHT22;2272;49.226;8.108;2023-03-23T05:15:47;12.90;99.90
4520;DHT22;2272;49.226;8.108;2023-03-23T05:18:15;12.80;99.90
4520;DHT22;2272;49.226;8.108;2023-03-23T05:20:50;12.70;99.90
4520;DHT22;2272;49.226;8.108;2023-03-23T05:23:28;12.80;99.90
4520;DHT22;2272;49.226;8.108;2023-03-23T05:25:58;12.80;99.90
4520;DHT22;2272;49.226;8.108;2023-03-23T05:28:28;12.80;99.90
4520;DHT22;2272;49.226;8.108;2023-03-23T05:30:57;12.80;99.90
4520;DHT22;2272;49.226;8.108;2023-03-23T05:33:30;12.70;99.90
4520;DHT22;2272;49.226;8.108;2023-03-23T05:36:00;12.80;99.90
4520;DHT22;2272;49.226;8.108;2023-03-23T05:38:30;12.80;99.90
4520;DHT22;2272;49.226;8.108;2023-03-23T05:41:13;12.80;99.90
4520;DHT22;2272;49.226;8.108;2023-03-23T05:43:42;12.80;99.90
4520;DHT22;2272;49.226;8.108;2023-03-23T05:46:15;12.90;99.90
4520;DHT22;2272;49.226;8.108;2023-03-23T05:48:52;12.90;99.90
4520;DHT22;2272;49.226;8.108;2023-03-23T05:51:23;12.90;99.90
4520;DHT22;2272;49.226;8.108;2023-03-23T05:53:56;13.00;99.90
4520;DHT22;2272;49.226;8.108;2023-03-23T05:56:24;13.00;99.90
4520;DHT22;2272;49.226;8.108;2023-03-23T05:58:51;12.90;99.90
4520;DHT22;2272;49.226;8.108;2023-03-23T06:01:20;12.90;99.90
4520;DHT22;2272;49.226;8.108;2023-03-23T06:03:54;12.90;99.90
4520;DHT22;2272;49.226;8.108;2023-03-23T06:06:24;13.00;99.90
4520;DHT22;2272;49.226;8.108;2023-03-23T06:08:51;13.00;99.90
4520;DHT22;2272;49.226;8.108;2023-03-23T06:11:19;13.00;99.90
4520;DHT22;2272;49.226;8.108;2023-03-23T06:14:11;13.10;99.90
4520;DHT22;2272;49.226;8.108;2023-03-23T06:16:43;13.10;99.90
4520;DHT22;2272;49.226;8.108;2023-03-23T06:19:10;13.10;99.90
4520;DHT22;2272;49.226;8.108;2023-03-23T06:21:43;13.10;99.90
4520;DHT22;2272;49.226;8.108;2023-03-23T06:24:12;13.10;99.90
4520;DHT22;2272;49.226;8.108;2023-03-23T06:26:39;13.10;99.90
4520;DHT22;2272;49.226;8.108;2023-03-23T06:29:09;13.20;99.90
4520;DHT22;2272;49.226;8.108;2023-03-23T06:31:38;13.20;99.90
4520;DHT22;2272;49.226;8.108;2023-03-23T06:34:09;13.20;99.90
4520;DHT22;2272;49.226;8.108;2023-03-23T06:36:37;13.30;99.90
4520;DHT22;2272;49.226;8.108;2023-03-23T06:39:22;13.30;99.90
4520;DHT22;2272;49.226;8.108;2023-03-23T06:41:56;13.40;99.90
4520;DHT22;2272;49.226;8.108;2023-03-23T06:44:24;13.40;99.90
4520;DHT22;2272;49.226;8.108;2023-03-23T06:46:54;13.40;99.90
4520;DHT22;2272;49.226;8.108;2023-03-23T06:49:22;13.30;99.90
4520;DHT22;2272;49.226;8.108;2023-03-23T06:51:49;13.30;99.90
4520;DHT22;2272;49.226;8.108;2023-03-23T06:54:16;13.20;99.90
4520;DHT22;2272;49.226;8.108;2023-03-23T06:56:43;13.20;99.90
4520;DHT22;2272;49.226;8.108;2023-03-23T06:59:11;13.10;99.90
4520;DHT22;2272;49.226;8.108;2023-03-23T07:01:38;13.10;99.90
4520;DHT22;2272;49.226;8.108;2023-03-23T07:04:05;13.10;99.90
4520;DHT22;2272;49.226;8.108;2023-03-23T07:06:34;13.00;99.90
4520;DHT22;2272;49.226;8.108;2023-03-23T07:09:01;13.00;99.90
4520;DHT22;2272;49.226;8.108;2023-03-23T07:11:28;13.00;99.90
4520;DHT22;2272;49.226;8.108;2023-03-23T07:13:55;13.00;99.90
4520;DHT22;2272;49.226;8.108;2023-03-23T07:16:23;13.00;99.90
4520;DHT22;2272;49.226;8.108;2023-03-23T07:18:50;13.00;99.90
4520;DHT22;2272;49.226;8.108;2023-03-23T07:21:16;13.10;99.90
4520;DHT22;2272;49.226;8.108;2023-03-23T07:23:45;13.00;99.90
4520;DHT22;2272;49.226;8.108;2023-03-23T07:26:12;13.00;99.90
4520;DHT22;2272;49.226;8.108;2023-03-23T07:28:39;12.90;99.90
4520;DHT22;2272;49.226;8.108;2023-03-23T07:31:10;12.90;99.90
4520;DHT22;2272;49.226;8.108;2023-03-23T07:33:38;12.90;99.90
4520;DHT22;2272;49.226;8.108;2023-03-23T07:36:06;12.80;99.90
4520;DHT22;2272;49.226;8.108;2023-03-23T07:38:33;12.80;99.90
4520;DHT22;2272;49.226;8.108;2023-03-23T07:41:03;12.90;99.90
4520;DHT22;2272;49.226;8.108;2023-03-23T07:43:30;13.00;99.90
4520;DHT22;2272;49.226;8.108;2023-03-23T07:45:57;13.10;99.90
4520;DHT22;2272;49.226;8.108;2023-03-23T07:48:24;13.20;99.90
4520;DHT22;2272;49.226;8.108;2023-03-23T07:50:50;13.40;99.90
4520;DHT22;2272;49.226;8.108;2023-03-23T07:53:17;13.50;99.90
4520;DHT22;2272;49.226;8.108;2023-03-23T07:55:44;13.50;99.90
4520;DHT22;2272;49.226;8.108;2023-03-23T07:58:12;13.50;99.90
4520;DHT22;2272;49.226;8.108;2023-03-23T08:00:44;13.50;99.90
4520;DHT22;2272;49.226;8.108;2023-03-23T08:03:12;13.50;99.90
4520;DHT22;2272;49.226;8.108;2023-03-23T08:05:39;13.60;99.90
4520;DHT22;2272;49.226;8.108;2023-03-23T08:08:07;13.60;99.90
4520;DHT22;2272;49.226;8.108;2023-03-23T08:10:35;13.60;99.90
4520;DHT22;2272;49.226;8.108;2023-03-23T08:13:11;13.70;99.90
4520;DHT22;2272;49.226;8.108;2023-03-23T08:15:38;13.80;99.90
4520;DHT22;2272;49.226;8.108;2023-03-23T08:18:05;13.90;99.90
4520;DHT22;2272;49.226;8.108;2023-03-23T08:20:32;14.00;99.90
4520;DHT22;2272;49.226;8.108;2023-03-23T08:22:59;14.10;99.90
4520;DHT22;2272;49.226;8.108;2023-03-23T08:25:28;14.30;99.90
4520;DHT22;2272;49.226;8.108;2023-03-23T08:27:57;14.40;99.90
4520;DHT22;2272;49.226;8.108;2023-03-23T08:30:26;14.60;99.90
4520;DHT22;2272;49.226;8.108;2023-03-23T08:32:55;14.70;99.90
4520;DHT22;2272;49.226;8.108;2023-03-23T08:35:23;14.80;99.90
4520;DHT22;2272;49.226;8.108;2023-03-23T08:37:51;14.80;99.90
4520;DHT22;2272;49.226;8.108;2023-03-23T08:40:21;14.80;99.90
4520;DHT22;2272;49.226;8.108;2023-03-23T08:42:50;14.80;99.90
4520;DHT22;2272;49.226;8.108;2023-03-23T08:45:21;14.80;99.90
4520;DHT22;2272;49.226;8.108;2023-03-23T08:47:51;14.60;99.90
4520;DHT22;2272;49.226;8.108;2023-03-23T08:50:24;14.50;99.90
4520;DHT22;2272;49.226;8.108;2023-03-23T08:52:52;14.50;99.90
4520;DHT22;2272;49.226;8.108;2023-03-23T08:55:21;14.50;99.90
4520;DHT22;2272;49.226;8.108;2023-03-23T08:57:48;14.90;99.90
4520;DHT22;2272;49.226;8.108;2023-03-23T09:00:25;15.10;99.90
4520;DHT22;2272;49.226;8.108;2023-03-23T09:02:57;15.20;99.90
4520;DHT22;2272;49.226;8.108;2023-03-23T09:05:39;15.20;99.90
4520;DHT22;2272;49.226;8.108;2023-03-23T09:08:11;15.20;99.90
4520;DHT22;2272;49.226;8.108;2023-03-23T09:10:41;15.20;99.90
4520;DHT22;2272;49.226;8.108;2023-03-23T09:13:10;15.10;99.90
4520;DHT22;2272;49.226;8.108;2023-03-23T09:15:36;14.90;99.90
4520;DHT22;2272;49.226;8.108;2023-03-23T09:18:12;14.70;99.90
4520;DHT22;2272;49.226;8.108;2023-03-23T09:20:45;14.50;99.90
4520;DHT22;2272;49.226;8.108;2023-03-23T09:23:12;14.50;99.90
4520;DHT22;2272;49.226;8.108;2023-03-23T09:25:45;14.30;99.90
4520;DHT22;2272;49.226;8.108;2023-03-23T09:28:17;14.10;99.90
4520;DHT22;2272;49.226;8.108;2023-03-23T09:30:46;14.10;99.90
4520;DHT22;2272;49.226;8.108;2023-03-23T09:33:16;14.20;99.90
4520;DHT22;2272;49.226;8.108;2023-03-23T09:35:43;14.50;99.90
4520;DHT22;2272;49.226;8.108;2023-03-23T09:38:11;14.80;99.90
4520;DHT22;2272;49.226;8.108;2023-03-23T09:40:44;15.20;99.90
4520;DHT22;2272;49.226;8.108;2023-03-23T09:43:33;15.50;99.90
4520;DHT22;2272;49.226;8.108;2023-03-23T09:46:17;15.60;99.90
4520;DHT22;2272;49.226;8.108;2023-03-23T09:48:53;15.60;99.90
4520;DHT22;2272;49.226;8.108;2023-03-23T09:51:44;15.50;99.90
4520;DHT22;2272;49.226;8.108;2023-03-23T09:54:20;15.40;99.90
4520;DHT22;2272;49.226;8.108;2023-03-23T09:56:49;15.40;99.90
4520;DHT22;2272;49.226;8.108;2023-03-23T09:59:34;15.30;99.90
4520;DHT22;2272;49.226;8.108;2023-03-23T10:02:13;15.20;99.90
4520;DHT22;2272;49.226;8.108;2023-03-23T10:04:46;15.10;99.90
4520;DHT22;2272;49.226;8.108;2023-03-23T10:07:18;15.10;99.90
4520;DHT22;2272;49.226;8.108;2023-03-23T10:09:47;15.10;99.90
4520;DHT22;2272;49.226;8.108;2023-03-23T10:12:21;15.20;99.90
4520;DHT22;2272;49.226;8.108;2023-03-23T10:15:17;15.40;99.90
4520;DHT22;2272;49.226;8.108;2023-03-23T10:17:55;15.50;99.90
4520;DHT22;2272;49.226;8.108;2023-03-23T10:20:36;15.40;99.90
4520;DHT22;2272;49.226;8.108;2023-03-23T10:23:14;15.30;99.90
4520;DHT22;2272;49.226;8.108;2023-03-23T10:25:55;15.10;99.90
4520;DHT22;2272;49.226;8.108;2023-03-23T10:28:36;15.00;99.90
4520;DHT22;2272;49.226;8.108;2023-03-23T10:31:05;14.90;99.90
4520;DHT22;2272;49.226;8.108;2023-03-23T10:33:39;14.80;99.90
4520;DHT22;2272;49.226;8.108;2023-03-23T10:36:13;14.90;99.90
4520;DHT22;2272;49.226;8.108;2023-03-23T10:38:46;15.10;99.90
4520;DHT22;2272;49.226;8.108;2023-03-23T10:41:17;15.40;99.90
4520;DHT22;2272;49.226;8.108;2023-03-23T10:43:46;15.60;99.90
4520;DHT22;2272;49.226;8.108;2023-03-23T10:46:26;15.80;99.90
4520;DHT22;2272;49.226;8.108;2023-03-23T10:48:58;15.90;99.90
4520;DHT22;2272;49.226;8.108;2023-03-23T10:51:31;16.10;99.90
4520;DHT22;2272;49.226;8.108;2023-03-23T10:54:01;16.20;99.90
4520;DHT22;2272;49.226;8.108;2023-03-23T10:56:39;16.50;99.90
4520;DHT22;2272;49.226;8.108;2023-03-23T10:59:44;16.60;99.90
4520;DHT22;2272;49.226;8.108;2023-03-23T11:02:16;16.50;99.90
4520;DHT22;2272;49.226;8.108;2023-03-23T11:04:59;16.30;99.90
4520;DHT22;2272;49.226;8.108;2023-03-23T11:07:31;16.40;99.90
4520;DHT22;2272;49.226;8.108;2023-03-23T11:10:08;16.50;99.90
4520;DHT22;2272;49.226;8.108;2023-03-23T11:12:44;16.50;99.90
4520;DHT22;2272;49.226;8.108;2023-03-23T11:15:30;16.60;99.90
4520;DHT22;2272;49.226;8.108;2023-03-23T11:18:00;16.80;99.90
4520;DHT22;2272;49.226;8.108;2023-03-23T11:20:28;17.00;99.90
4520;DHT22;2272;49.226;8.108;2023-03-23T11:23:00;17.30;99.90
4520;DHT22;2272;49.226;8.108;2023-03-23T11:25:27;17.50;99.90
4520;DHT22;2272;49.226;8.108;2023-03-23T11:27:55;17.60;99.90
4520;DHT22;2272;49.226;8.108;2023-03-23T11:30:25;17.80;99.90
4520;DHT22;2272;49.226;8.108;2023-03-23T11:32:53;17.80;99.90
4520;DHT22;2272;49.226;8.108;2023-03-23T11:35:23;17.80;99.90
4520;DHT22;2272;49.226;8.108;2023-03-23T11:37:53;17.50;99.90
4520;DHT22;2272;49.226;8.108;2023-03-23T11:40:24;17.50;99.90
4520;DHT22;2272;49.226;8.108;2023-03-23T11:42:58;17.40;99.90
4520;DHT22;2272;49.226;8.108;2023-03-23T11:45:33;17.20;99.90
4520;DHT22;2272;49.226;8.108;2023-03-23T11:48:10;16.80;99.90
4520;DHT22;2272;49.226;8.108;2023-03-23T11:50:49;16.70;99.90
4520;DHT22;2272;49.226;8.108;2023-03-23T11:53:35;16.90;99.90
4520;DHT22;2272;49.226;8.108;2023-03-23T11:56:12;17.20;99.90
4520;DHT22;2272;49.226;8.108;2023-03-23T11:58:40;17.40;99.90
4520;DHT22;2272;49.226;8.108;2023-03-23T12:01:13;17.70;99.90
4520;DHT22;2272;49.226;8.108;2023-03-23T12:06:45;18.10;99.90
4520;DHT22;2272;49.226;8.108;2023-03-23T12:09:25;17.90;99.90
4520;DHT22;2272;49.226;8.108;2023-03-23T12:12:05;17.60;99.90
4520;DHT22;2272;49.226;8.108;2023-03-23T12:14:41;17.20;99.90
4520;DHT22;2272;49.226;8.108;2023-03-23T12:17:19;16.50;99.90
4520;DHT22;2272;49.226;8.108;2023-03-23T12:19:55;16.30;99.90
4520;DHT22;2272;49.226;8.108;2023-03-23T12:22:37;16.10;99.90
4520;DHT22;2272;49.226;8.108;2023-03-23T12:28:29;15.70;99.90
4520;DHT22;2272;49.226;8.108;2023-03-23T12:31:05;15.70;99.90
4520;DHT22;2272;49.226;8.108;2023-03-23T12:33:45;15.90;99.90
4520;DHT22;2272;49.226;8.108;2023-03-23T12:36:23;16.00;99.90
4520;DHT22;2272;49.226;8.108;2023-03-23T12:39:32;16.10;99.90
4520;DHT22;2272;49.226;8.108;2023-03-23T12:42:06;16.30;99.90
4520;DHT22;2272;49.226;8.108;2023-03-23T12:44:46;16.60;99.90
4520;DHT22;2272;49.226;8.108;2023-03-23T12:47:25;16.80;99.90
4520;DHT22;2272;49.226;8.108;2023-03-23T12:49:58;16.90;99.90
4520;DHT22;2272;49.226;8.108;2023-03-23T12:52:30;16.70;99.90
4520;DHT22;2272;49.226;8.108;2023-03-23T12:55:02;16.40;99.90
4520;DHT22;2272;49.226;8.108;2023-03-23T12:57:34;16.10;99.90
4520;DHT22;2272;49.226;8.108;2023-03-23T13:00:07;15.90;99.90
4520;DHT22;2272;49.226;8.108;2023-03-23T13:02:41;16.00;99.90
4520;DHT22;2272;49.226;8.108;2023-03-23T13:05:24;16.40;99.90
4520;DHT22;2272;49.226;8.108;2023-03-23T13:07:56;16.70;99.90
4520;DHT22;2272;49.226;8.108;2023-03-23T13:10:26;17.00;99.90
4520;DHT22;2272;49.226;8.108;2023-03-23T13:12:54;17.30;99.90
4520;DHT22;2272;49.226;8.108;2023-03-23T13:15:31;17.30;99.90
4520;DHT22;2272;49.226;8.108;2023-03-23T13:18:04;17.20;99.90
4520;DHT22;2272;49.226;8.108;2023-03-23T13:20:52;17.30;99.90
4520;DHT22;2272;49.226;8.108;2023-03-23T13:23:22;17.10;99.90
4520;DHT22;2272;49.226;8.108;2023-03-23T13:25:53;16.80;99.90
4520;DHT22;2272;49.226;8.108;2023-03-23T13:28:25;16.60;99.90
4520;DHT22;2272;49.226;8.108;2023-03-23T13:30:58;16.40;99.90
4520;DHT22;2272;49.226;8.108;2023-03-23T13:33:31;16.10;99.90
4520;DHT22;2272;49.226;8.108;2023-03-23T13:36:04;15.80;99.90
4520;DHT22;2272;49.226;8.108;2023-03-23T13:38:33;15.50;99.90
4520;DHT22;2272;49.226;8.108;2023-03-23T13:41:07;15.30;99.90
4520;DHT22;2272;49.226;8.108;2023-03-23T13:43:37;15.10;99.90
4520;DHT22;2272;49.226;8.108;2023-03-23T13:46:24;15.00;99.90
4520;DHT22;2272;49.226;8.108;2023-03-23T13:49:16;14.80;99.90
4520;DHT22;2272;49.226;8.108;2023-03-23T13:52:05;14.70;99.90
4520;DHT22;2272;49.226;8.108;2023-03-23T13:54:40;14.60;99.90
4520;DHT22;2272;49.226;8.108;2023-03-23T13:57:34;14.50;99.90
4520;DHT22;2272;49.226;8.108;2023-03-23T14:00:44;14.30;99.90
4520;DHT22;2272;49.226;8.108;2023-03-23T14:03:19;14.30;99.90
4520;DHT22;2272;49.226;8.108;2023-03-23T14:06:05;14.20;99.90
4520;DHT22;2272;49.226;8.108;2023-03-23T14:08:43;14.20;99.90
4520;DHT22;2272;49.226;8.108;2023-03-23T14:11:19;14.20;99.90
4520;DHT22;2272;49.226;8.108;2023-03-23T14:13:59;14.20;99.90
4520;DHT22;2272;49.226;8.108;2023-03-23T14:16:36;14.30;99.90
4520;DHT22;2272;49.226;8.108;2023-03-23T14:19:19;14.40;99.90
4520;DHT22;2272;49.226;8.108;2023-03-23T14:21:52;14.40;99.90
4520;DHT22;2272;49.226;8.108;2023-03-23T14:24:27;14.40;99.90
4520;DHT22;2272;49.226;8.108;2023-03-23T14:27:02;14.40;99.90
4520;DHT22;2272;49.226;8.108;2023-03-23T14:29:35;14.40;99.90
4520;DHT22;2272;49.226;8.108;2023-03-23T14:32:04;14.40;99.90
4520;DHT22;2272;49.226;8.108;2023-03-23T14:34:36;14.40;99.90
4520;DHT22;2272;49.226;8.108;2023-03-23T14:37:04;14.30;99.90
4520;DHT22;2272;49.226;8.108;2023-03-23T14:39:32;14.30;99.90
4520;DHT22;2272;49.226;8.108;2023-03-23T15:03:03;14.80;99.90
4520;DHT22;2272;49.226;8.108;2023-03-23T15:08:34;15.20;99.90
4520;DHT22;2272;49.226;8.108;2023-03-23T15:11:07;15.40;99.90
4520;DHT22;2272;49.226;8.108;2023-03-23T15:13:35;15.50;99.90
4520;DHT22;2272;49.226;8.108;2023-03-23T15:16:05;15.60;99.90
4520;DHT22;2272;49.226;8.108;2023-03-23T15:18:36;15.60;99.90
4520;DHT22;2272;49.226;8.108;2023-03-23T15:21:12;15.50;99.90
4520;DHT22;2272;49.226;8.108;2023-03-23T15:23:46;15.40;99.90
4520;DHT22;2272;49.226;8.108;2023-03-23T15:26:31;15.30;99.90
4520;DHT22;2272;49.226;8.108;2023-03-23T15:31:49;14.90;99.90
4520;DHT22;2272;49.226;8.108;2023-03-23T15:34:28;14.80;99.90
4520;DHT22;2272;49.226;8.108;2023-03-23T15:36:59;14.70;99.90
4520;DHT22;2272;49.226;8.108;2023-03-23T15:39:27;14.60;99.90
4520;DHT22;2272;49.226;8.108;2023-03-23T15:42:00;14.60;99.90
4520;DHT22;2272;49.226;8.108;2023-03-23T15:45:16;14.60;99.90
4520;DHT22;2272;49.226;8.108;2023-03-23T15:48:11;14.70;99.90
4520;DHT22;2272;49.226;8.108;2023-03-23T15:50:43;14.80;99.90
4520;DHT22;2272;49.226;8.108;2023-03-23T15:56:09;14.90;99.90
4520;DHT22;2272;49.226;8.108;2023-03-23T15:58:40;14.90;99.90
4520;DHT22;2272;49.226;8.108;2023-03-23T16:01:10;15.00;99.90
4520;DHT22;2272;49.226;8.108;2023-03-23T16:03:39;15.00;99.90
4520;DHT22;2272;49.226;8.108;2023-03-23T16:06:10;14.90;99.90
4520;DHT22;2272;49.226;8.108;2023-03-23T16:08:41;14.90;99.90
4520;DHT22;2272;49.226;8.108;2023-03-23T16:11:16;14.90;99.90
4520;DHT22;2272;49.226;8.108;2023-03-23T16:13:43;14.90;99.90
4520;DHT22;2272;49.226;8.108;2023-03-23T16:16:21;15.00;99.90
4520;DHT22;2272;49.226;8.108;2023-03-23T16:18:48;15.00;99.90
4520;DHT22;2272;49.226;8.108;2023-03-23T16:21:17;15.00;99.90
4520;DHT22;2272;49.226;8.108;2023-03-23T16:23:44;14.90;99.90
4520;DHT22;2272;49.226;8.108;2023-03-23T16:26:14;14.90;99.90
4520;DHT22;2272;49.226;8.108;2023-03-23T16:28:41;14.90;99.90
4520;DHT22;2272;49.226;8.108;2023-03-23T16:31:09;14.90;99.90
4520;DHT22;2272;49.226;8.108;2023-03-23T16:33:38;14.80;99.90
4520;DHT22;2272;49.226;8.108;2023-03-23T16:36:06;14.70;99.90
4520;DHT22;2272;49.226;8.108;2023-03-23T16:38:35;14.70;99.90
4520;DHT22;2272;49.226;8.108;2023-03-23T16:41:04;14.70;99.90
4520;DHT22;2272;49.226;8.108;2023-03-23T16:43:32;14.60;99.90
4520;DHT22;2272;49.226;8.108;2023-03-23T16:45:59;14.60;99.90
4520;DHT22;2272;49.226;8.108;2023-03-23T16:48:26;14.50;99.90
4520;DHT22;2272;49.226;8.108;2023-03-23T16:50:53;14.50;99.90
4520;DHT22;2272;49.226;8.108;2023-03-23T16:53:25;14.50;99.90
4520;DHT22;2272;49.226;8.108;2023-03-23T16:55:57;14.50;99.90
4520;DHT22;2272;49.226;8.108;2023-03-23T16:58:24;14.40;99.90
4520;DHT22;2272;49.226;8.108;2023-03-23T17:00:53;14.30;99.90
4520;DHT22;2272;49.226;8.108;2023-03-23T17:03:20;14.30;99.90
4520;DHT22;2272;49.226;8.108;2023-03-23T17:05:48;14.20;99.90
4520;DHT22;2272;49.226;8.108;2023-03-23T17:08:18;14.20;99.90
4520;DHT22;2272;49.226;8.108;2023-03-23T17:10:46;14.20;99.90
4520;DHT22;2272;49.226;8.108;2023-03-23T17:13:14;14.10;99.90
4520;DHT22;2272;49.226;8.108;2023-03-23T17:15:42;14.10;99.90
4520;DHT22;2272;49.226;8.108;2023-03-23T17:18:09;14.00;99.90
4520;DHT22;2272;49.226;8.108;2023-03-23T17:20:36;14.00;99.90
4520;DHT22;2272;49.226;8.108;2023-03-23T17:23:03;13.90;99.90
4520;DHT22;2272;49.226;8.108;2023-03-23T17:25:31;13.90;99.90
4520;DHT22;2272;49.226;8.108;2023-03-23T17:27:58;13.80;99.90
4520;DHT22;2272;49.226;8.108;2023-03-23T17:30:26;13.80;99.90
4520;DHT22;2272;49.226;8.108;2023-03-23T17:32:53;13.80;99.90
4520;DHT22;2272;49.226;8.108;2023-03-23T17:35:20;13.70;99.90
4520;DHT22;2272;49.226;8.108;2023-03-23T17:37:47;13.70;99.90